Time;durP1;ratioP1;P1;durP2;ratioP2;P2;SDS_P1;SDS_P2;PMS_P1;PMS_P2;Temp;Humidity;BMP_temperature;BMP_pressure;BME280_temperature;BME280_humidity;BME280_pressure;Samples;Min_cycle;Max_cycle;Signal;HPM_P1;HPM_P2
2023/01/20 00:00:36;;;;;;;8.70;5.95;;;1.00;99.90;;;-0.08;100.00;101293.00;4152587;28;20026;-79
2023/01/20 00:02:37;;;;;;;9.48;5.88;;;1.00;99.90;;;-0.12;100.00;101297.50;4151673;28;20077;-79
2023/01/20 00:04:37;;;;;;;11.20;6.57;;;0.90;99.90;;;-0.17;100.00;101289.13;4152258;28;20034;-79
2023/01/20 00:06:38;;;;;;;10.32;6.65;;;0.90;99.90;;;-0.03;100.00;101294.47;4151301;28;20028;-79
2023/01/20 00:08:39;;;;;;;12.27;6.00;;;1.00;99.90;;;-0.09;100.00;101293.94;4152497;28;20065;-79
2023/01/20 00:10:40;;;;;;;10.63;6.68;;;1.00;99.90;;;0.03;100.00;101306.28;4152380;28;20049;-79
2023/01/20 00:12:41;;;;;;;13.70;6.00;;;1.10;99.90;;;-0.04;100.00;101305.78;4152235;28;20149;-79
2023/01/20 00:14:42;;;;;;;9.75;6.55;;;1.10;99.90;;;-0.06;100.00;101302.41;4151492;28;20026;-79
2023/01/20 00:16:43;;;;;;;11.45;6.85;;;1.10;99.90;;;-0.07;100.00;101302.47;4138363;28;20064;-79
2023/01/20 00:18:44;;;;;;;9.63;5.88;;;1.00;99.90;;;0.05;100.00;101306.22;4157134;28;20026;-79
2023/01/20 00:20:44;;;;;;;9.50;6.20;;;1.10;99.90;;;0.02;100.00;101306.38;4150946;28;20050;-79
2023/01/20 00:22:45;;;;;;;13.20;6.72;;;1.10;99.90;;;-0.10;100.00;101300.88;4152215;28;20441;-79
2023/01/20 00:24:46;;;;;;;9.52;6.35;;;1.00;99.90;;;-0.09;100.00;101305.13;4159001;28;20022;-79
2023/01/20 00:26:47;;;;;;;8.00;6.10;;;1.00;99.90;;;-0.11;100.00;101313.91;4161722;28;20056;-79
2023/01/20 00:28:51;;;;;;;15.02;6.75;;;1.00;99.90;;;-0.10;100.00;101318.19;4153923;28;20037;-79
2023/01/20 00:30:52;;;;;;;12.63;6.43;;;1.00;99.90;;;-0.11;100.00;101327.72;4152308;28;20090;-79
2023/01/20 00:32:53;;;;;;;12.85;5.72;;;0.90;99.90;;;-0.13;100.00;101326.97;4152523;28;20133;-79
2023/01/20 00:34:54;;;;;;;10.35;5.60;;;0.90;99.90;;;-0.16;100.00;101326.25;4152259;28;20168;-79
2023/01/20 00:36:55;;;;;;;8.55;5.60;;;0.90;99.90;;;-0.21;100.00;101331.66;4156893;28;20037;-79
2023/01/20 00:38:56;;;;;;;7.75;5.15;;;0.80;99.90;;;-0.24;100.00;101333.56;4151038;28;20378;-79
2023/01/20 00:40:57;;;;;;;11.18;5.78;;;0.90;99.90;;;-0.27;100.00;101329.34;4151097;28;20026;-79
2023/01/20 00:42:58;;;;;;;8.32;5.90;;;0.80;99.90;;;-0.22;100.00;101337.78;4151009;28;20025;-79
2023/01/20 00:44:59;;;;;;;5.47;4.80;;;0.80;99.90;;;-0.18;100.00;101344.47;4150966;28;20022;-79
2023/01/20 00:46:59;;;;;;;10.93;5.97;;;0.80;99.90;;;-0.23;100.00;101346.44;4154806;28;20105;-79
2023/01/20 00:49:00;;;;;;;8.25;5.68;;;0.80;99.90;;;-0.24;100.00;101352.53;4152145;28;20033;-79
2023/01/20 00:51:02;;;;;;;9.23;5.25;;;0.80;99.90;;;-0.25;100.00;101337.06;4151939;28;20176;-79
2023/01/20 00:53:03;;;;;;;8.05;5.40;;;0.90;99.90;;;-0.26;100.00;101345.75;4150730;28;20068;-79
2023/01/20 00:55:05;;;;;;;7.07;5.15;;;0.90;99.90;;;-0.23;100.00;101345.59;4150787;28;20088;-79
2023/01/20 00:57:06;;;;;;;11.32;6.25;;;0.80;99.90;;;-0.20;100.00;101356.69;4156522;28;20038;-79
2023/01/20 00:59:09;;;;;;;10.52;5.68;;;0.80;99.90;;;-0.15;100.00;101356.47;4151995;28;20041;-79
2023/01/20 01:01:11;;;;;;;13.02;6.70;;;0.90;99.90;;;-0.10;100.00;101362.28;4151999;28;20057;-79
2023/01/20 01:03:12;;;;;;;9.65;6.45;;;0.90;99.90;;;-0.13;100.00;101350.28;4150838;28;20022;-79
2023/01/20 01:05:13;;;;;;;9.50;5.88;;;1.00;99.90;;;-0.05;100.00;101365.47;4150841;28;20041;-79
2023/01/20 01:07:14;;;;;;;10.73;5.85;;;1.00;99.90;;;-0.07;100.00;101367.31;4154863;28;20025;-79
2023/01/20 01:09:15;;;;;;;7.88;6.13;;;1.00;99.90;;;-0.18;100.00;101349.66;4151915;28;20053;-79
2023/01/20 01:11:15;;;;;;;11.43;5.88;;;0.90;99.90;;;-0.17;100.00;101366.06;4150817;28;20037;-79
2023/01/20 01:13:16;;;;;;;12.52;6.38;;;0.90;99.90;;;-0.22;100.00;101366.28;4152496;28;20062;-79
2023/01/20 01:15:17;;;;;;;12.00;5.78;;;0.90;99.90;;;-0.20;100.00;101369.63;4155014;28;20037;-79
2023/01/20 01:17:18;;;;;;;9.90;5.88;;;0.90;99.90;;;-0.20;100.00;101374.81;4155422;28;20042;-79
2023/01/20 01:19:19;;;;;;;11.35;5.75;;;0.80;99.90;;;-0.21;100.00;101380.09;4153517;28;20088;-79
2023/01/20 01:21:20;;;;;;;10.52;5.97;;;0.80;99.90;;;-0.25;100.00;101381.97;4154495;28;20046;-79
2023/01/20 01:23:21;;;;;;;7.80;5.88;;;0.80;99.90;;;-0.25;100.00;101391.50;4153713;28;20051;-79
2023/01/20 01:25:22;;;;;;;13.45;5.05;;;0.80;99.90;;;-0.25;100.00;101391.50;4167389;28;20025;-79
2023/01/20 01:27:23;;;;;;;10.27;5.47;;;0.80;99.90;;;-0.25;100.00;101392.34;4167062;28;20026;-79
2023/01/20 01:29:24;;;;;;;8.57;5.50;;;0.80;99.90;;;-0.24;100.00;101395.78;4153914;28;20029;-79
2023/01/20 01:31:25;;;;;;;14.57;5.53;;;0.80;99.90;;;-0.26;100.00;101398.44;4154800;28;20079;-79
2023/01/20 01:33:27;;;;;;;9.75;5.43;;;0.80;99.90;;;-0.24;100.00;101404.38;4137200;28;20502;-79
2023/01/20 01:35:28;;;;;;;9.05;5.43;;;0.80;99.90;;;-0.27;100.00;101404.53;4153356;28;20116;-79
2023/01/20 01:37:29;;;;;;;10.07;5.32;;;0.80;99.90;;;-0.17;100.00;101423.09;4153116;28;20033;-79
2023/01/20 01:39:30;;;;;;;12.70;5.47;;;0.90;99.90;;;-0.11;100.00;101421.06;4154718;28;20018;-79
2023/01/20 01:41:31;;;;;;;10.35;5.55;;;0.90;99.90;;;-0.09;100.00;101416.63;4153295;28;20393;-79
2023/01/20 01:43:35;;;;;;;10.27;5.25;;;1.00;99.90;;;-0.08;100.00;101418.31;4153256;28;20612;-79
2023/01/20 01:45:36;;;;;;;;;;;1.00;99.90;;;-0.09;100.00;101428.78;4153853;28;20438;-79
2023/01/20 01:47:53;;;;;;;10.07;5.85;;;1.00;99.90;;;-0.09;100.00;101424.41;4144186;28;19933;-79
2023/01/20 01:49:54;;;;;;;9.48;5.20;;;1.00;99.90;;;-0.05;100.00;101438.94;4154426;28;20394;-79
2023/01/20 01:52:04;;;;;;;11.43;5.07;;;1.00;99.90;;;-0.03;100.00;101431.91;4154260;28;20073;-79
2023/01/20 01:54:12;;;;;;;9.10;4.88;;;1.00;99.90;;;-0.12;100.00;101436.69;4154761;28;20083;-79
2023/01/20 01:56:15;;;;;;;9.30;5.53;;;1.10;99.90;;;-0.14;100.00;101434.16;4140392;28;20030;-79
2023/01/20 01:58:21;;;;;;;7.40;5.18;;;1.00;99.90;;;-0.18;100.00;101450.75;4154281;28;20033;-79
2023/01/20 02:00:22;;;;;;;8.40;5.10;;;1.00;99.90;;;-0.22;100.00;101438.88;4153243;28;20026;-79
2023/01/20 02:02:23;;;;;;;11.57;5.68;;;1.00;99.90;;;-0.19;100.00;101456.03;4154240;28;20029;-79
2023/01/20 02:04:26;;;;;;;7.43;4.82;;;0.90;99.90;;;-0.16;100.00;101459.34;4153006;28;20036;-79
2023/01/20 02:06:35;;;;;;;10.20;5.85;;;0.90;99.90;;;-0.18;100.00;101461.13;4155387;28;20025;-79
2023/01/20 02:08:36;;;;;;;8.38;5.78;;;0.90;99.90;;;-0.14;100.00;101472.22;4153029;28;20486;-78
2023/01/20 02:10:37;;;;;;;11.40;5.30;;;1.00;99.90;;;-0.31;100.00;101449.66;4152989;28;20464;-79
2023/01/20 02:12:40;;;;;;;12.15;5.45;;;0.90;99.90;;;-0.19;100.00;101477.63;4153993;28;20037;-78
2023/01/20 02:14:52;;;;;;;9.32;5.18;;;0.90;99.90;;;-0.19;100.00;101480.22;4154287;28;20112;-79
2023/01/20 02:17:24;;;;;;;10.60;5.68;;;0.90;99.90;;;-0.24;100.00;101482.16;4154109;28;20026;-79
2023/01/20 02:19:40;;;;;;;11.32;5.15;;;0.80;99.90;;;-0.33;100.00;101489.53;4153799;28;20555;-79
2023/01/20 02:22:02;;;;;;;10.05;5.45;;;0.80;99.90;;;-0.40;100.00;101491.53;4153547;28;20060;-79
2023/01/20 02:24:30;;;;;;;7.93;4.80;;;0.70;99.90;;;-0.44;100.00;101491.72;4154131;28;20026;-79
2023/01/20 02:27:07;;;;;;;8.95;4.75;;;0.60;99.90;;;-0.52;100.00;101512.81;4182269;28;20029;-80
2023/01/20 02:29:43;;;;;;;9.43;4.82;;;0.60;99.90;;;-0.59;100.00;101506.19;4136862;28;20027;-78
2023/01/20 02:31:59;;;;;;;8.45;5.22;;;0.60;99.90;;;-0.62;100.00;101517.53;4153919;28;20505;-79
2023/01/20 02:34:28;;;;;;;8.40;5.13;;;0.50;99.90;;;-0.62;100.00;101516.69;4152390;28;20505;-79
2023/01/20 02:36:56;;;;;;;12.30;5.55;;;0.40;99.90;;;-0.60;100.00;101523.50;4158565;28;20048;-79
2023/01/20 02:39:27;;;;;;;9.15;4.15;;;0.50;99.90;;;-0.57;100.00;101527.72;4139939;28;20096;-79
2023/01/20 02:41:34;;;;;;;8.25;4.55;;;0.50;99.90;;;-0.54;100.00;101527.59;4153499;28;20036;-79
2023/01/20 02:43:47;;;;;;;8.38;4.97;;;0.50;99.90;;;-0.60;100.00;101515.72;4152195;28;20113;-79
2023/01/20 02:46:19;;;;;;;9.68;4.63;;;0.50;99.90;;;-0.55;100.00;101531.09;4152528;28;20026;-79
2023/01/20 02:48:46;;;;;;;7.10;4.80;;;0.50;99.90;;;-0.50;100.00;101528.28;4145381;28;20410;-79
2023/01/20 02:50:59;;;;;;;10.43;4.60;;;0.60;99.90;;;-0.49;100.00;101522.19;4153489;28;20084;-79
2023/01/20 02:53:02;;;;;;;9.82;4.47;;;0.60;99.90;;;-0.49;100.00;101528.22;4153448;28;20118;-79
2023/01/20 02:55:09;;;;;;;7.35;4.55;;;0.60;99.90;;;-0.49;100.00;101529.97;4152113;28;20037;-79
2023/01/20 02:57:14;;;;;;;10.52;4.55;;;0.60;99.90;;;-0.46;100.00;101528.09;4152314;28;20025;-79
2023/01/20 02:59:23;;;;;;;8.30;4.53;;;0.60;99.90;;;-0.42;100.00;101534.84;4153532;28;20029;-79
2023/01/20 03:02:03;;;;;;;8.77;4.32;;;0.70;99.90;;;-0.42;100.00;101532.25;4152044;28;20029;-79
2023/01/20 03:04:08;;;;;;;7.70;4.07;;;0.70;99.90;;;-0.38;100.00;101543.28;4150286;28;20118;-79
2023/01/20 03:06:17;;;;;;;8.82;5.05;;;0.70;99.90;;;-0.45;100.00;101532.38;4153178;28;20401;-79
2023/01/20 03:08:21;;;;;;;9.77;4.75;;;0.70;99.90;;;-0.38;100.00;101541.56;4152161;28;20433;-79
2023/01/20 03:10:27;;;;;;;6.80;3.80;;;0.70;99.90;;;-0.46;100.00;101541.06;4153273;28;20036;-79
2023/01/20 03:12:41;;;;;;;8.00;4.10;;;0.70;99.90;;;-0.50;100.00;101541.25;4152135;28;20207;-78
2023/01/20 03:14:42;;;;;;;7.67;4.17;;;0.60;99.90;;;-0.61;100.00;101537.38;4153242;28;20080;-79
2023/01/20 03:16:46;;;;;;;8.85;4.20;;;0.50;99.90;;;-0.61;100.00;101536.53;4158339;28;20021;-79
2023/01/20 03:18:48;;;;;;;7.43;4.28;;;0.50;99.90;;;-0.66;100.00;101531.53;4157318;28;20449;-78
2023/01/20 03:20:50;;;;;;;7.32;4.07;;;0.40;99.90;;;-0.66;100.00;101538.50;4151434;28;20084;-79
2023/01/20 03:22:51;;;;;;;9.75;4.35;;;0.40;99.90;;;-0.70;100.00;101536.91;4151947;28;20033;-79
2023/01/20 03:24:53;;;;;;;9.93;4.03;;;0.40;99.90;;;-0.73;100.00;101531.88;4152741;28;20022;-79
2023/01/20 03:26:53;;;;;;;9.20;4.15;;;0.40;99.90;;;-0.72;100.00;101536.16;4159423;28;20504;-79
2023/01/20 03:28:55;;;;;;;6.55;4.22;;;0.40;99.90;;;-0.75;100.00;101533.69;4154074;28;20045;-79
2023/01/20 03:30:57;;;;;;;8.80;4.63;;;0.40;99.90;;;-0.68;100.00;101545.47;4151849;28;20156;-79
2023/01/20 03:32:59;;;;;;;7.70;4.03;;;0.40;99.90;;;-0.77;100.00;101540.66;4151734;28;20060;-79
2023/01/20 03:35:00;;;;;;;6.70;4.45;;;0.40;99.90;;;-0.73;100.00;101550.84;4135385;28;20038;-79
2023/01/20 03:37:02;;;;;;;6.38;3.92;;;0.40;99.90;;;-0.74;100.00;101551.75;4158861;28;20029;-79
2023/01/20 03:39:04;;;;;;;5.22;3.58;;;0.40;99.90;;;-0.77;100.00;101549.28;4151838;28;20489;-79
2023/01/20 03:41:25;;;;;;;5.22;3.92;;;0.30;99.90;;;-0.78;100.00;101547.63;4152827;28;20486;-79
2023/01/20 03:44:03;;;;;;;6.03;4.32;;;0.30;99.90;;;-0.81;100.00;101552.94;4151550;28;20030;-78
2023/01/20 03:46:49;;;;;;;5.80;3.50;;;0.30;99.90;;;-0.90;100.00;101545.53;4153300;28;20040;-79
2023/01/20 03:49:28;;;;;;;5.57;3.47;;;0.30;99.90;;;-0.83;100.00;101556.47;4140652;28;20030;-79
2023/01/20 03:52:12;;;;;;;7.82;4.30;;;0.30;99.90;;;-0.86;100.00;101562.63;4151397;28;20030;-79
2023/01/20 03:54:21;;;;;;;7.07;4.57;;;0.20;99.90;;;-0.94;100.00;101559.50;4137418;28;20078;-78
2023/01/20 03:57:03;;;;;;;6.50;3.97;;;0.20;99.90;;;-0.97;100.00;101563.97;4151140;28;20026;-79
2023/01/20 03:59:08;;;;;;;7.93;4.05;;;0.20;99.90;;;-1.01;100.00;101562.41;4115890;28;20092;-79
2023/01/20 04:01:11;;;;;;;8.45;5.13;;;0.10;99.90;;;-1.03;100.00;101570.25;4151273;28;20390;-79
2023/01/20 04:03:25;;;;;;;5.65;3.55;;;0.10;99.90;;;-1.04;100.00;101567.69;4150931;28;20034;-79
2023/01/20 04:05:27;;;;;;;8.23;5.22;;;0.10;99.90;;;-0.95;100.00;101577.69;4135378;28;20502;-79
2023/01/20 04:07:31;;;;;;;8.88;4.53;;;0.10;99.90;;;-0.92;100.00;101572.38;4152263;28;20046;-79
2023/01/20 04:09:38;;;;;;;8.57;4.85;;;0.10;99.90;;;-0.93;100.00;101570.72;4151320;28;20022;-79
2023/01/20 04:11:39;;;;;;;6.25;3.90;;;0.20;99.90;;;-0.87;100.00;101575.66;4151484;28;20108;-79
2023/01/20 04:13:39;;;;;;;9.05;4.63;;;0.20;99.90;;;-0.88;100.00;101579.97;4134849;28;20097;-80
2023/01/20 04:15:44;;;;;;;5.75;4.20;;;0.20;99.90;;;-0.88;100.00;101582.56;4134871;28;20063;-79
2023/01/20 04:17:45;;;;;;;7.88;4.55;;;0.20;99.90;;;-0.88;100.00;101589.47;4160757;28;20032;-79
2023/01/20 04:19:47;;;;;;;9.63;3.97;;;0.20;99.90;;;-0.90;100.00;101586.97;4151492;28;20517;-79
2023/01/20 04:22:19;;;;;;;7.28;4.82;;;0.20;99.90;;;-0.93;100.00;101591.44;4150754;28;20045;-79
2023/01/20 04:24:37;;;;;;;8.40;4.68;;;0.20;99.90;;;-0.97;100.00;101590.72;4151697;28;20065;-79
2023/01/20 04:26:38;;;;;;;7.70;4.28;;;0.10;99.90;;;-0.93;100.00;101596.59;4155901;28;20166;-79
2023/01/20 04:28:39;;;;;;;5.97;4.38;;;0.20;99.90;;;-0.96;100.00;101602.75;4157435;28;20093;-79
2023/01/20 04:30:40;;;;;;;5.78;4.18;;;0.10;99.90;;;-1.02;100.00;101591.81;4150917;28;20025;-79
2023/01/20 04:32:41;;;;;;;10.32;5.03;;;0.20;99.90;;;-0.99;100.00;101596.84;4151392;28;20037;-79
2023/01/20 04:34:42;;;;;;;10.57;4.30;;;0.10;99.90;;;-0.97;100.00;101598.47;4151132;28;20057;-79
2023/01/20 04:36:43;;;;;;;7.75;5.18;;;0.10;99.90;;;-0.96;100.00;101610.53;4155990;28;20064;-79
2023/01/20 04:38:43;;;;;;;8.38;4.88;;;0.20;99.90;;;-0.94;100.00;101610.44;4154350;28;20026;-79
2023/01/20 04:40:45;;;;;;;12.07;4.72;;;0.20;99.90;;;-0.97;100.00;101602.81;4151268;28;20098;-79
2023/01/20 04:42:46;;;;;;;9.48;4.57;;;0.20;99.90;;;-0.99;100.00;101609.81;4152319;28;20028;-79
2023/01/20 04:44:46;;;;;;;6.30;4.15;;;0.10;99.90;;;-1.01;100.00;101607.25;4151018;28;20052;-79
2023/01/20 04:46:47;;;;;;;7.13;4.63;;;0.10;99.90;;;-1.00;100.00;101602.94;4157711;28;20072;-79
2023/01/20 04:48:48;;;;;;;7.35;4.28;;;0.10;99.90;;;-1.02;100.00;101596.97;4152438;28;20037;-78
2023/01/20 04:50:49;;;;;;;7.05;4.43;;;0.10;99.90;;;-1.02;100.00;101597.81;4155364;28;20064;-79
2023/01/20 04:52:54;;;;;;;12.10;4.65;;;0.10;99.90;;;-1.06;100.00;101590.22;4154048;28;20022;-79
2023/01/20 04:54:55;;;;;;;11.20;4.30;;;0.10;99.90;;;-1.04;100.00;101596.19;4154081;28;20036;-79
2023/01/20 04:56:56;;;;;;;8.52;4.72;;;0.10;99.90;;;-1.01;100.00;101601.22;4141088;28;20030;-80
2023/01/20 04:58:57;;;;;;;6.57;4.57;;;0.10;99.90;;;-1.02;100.00;101604.75;4154176;28;20521;-79
2023/01/20 05:01:01;;;;;;;7.88;5.22;;;0.10;99.90;;;-1.04;100.00;101604.78;4153966;28;20555;-79
2023/01/20 05:03:02;;;;;;;8.52;5.10;;;0.10;99.90;;;-1.07;100.00;101602.31;4153891;28;20072;-79
2023/01/20 05:05:03;;;;;;;12.40;5.63;;;0.10;99.90;;;-1.02;100.00;101609.94;4154112;28;20532;-79
2023/01/20 05:07:04;;;;;;;8.07;4.68;;;0.10;99.90;;;-1.07;100.00;101606.66;4155960;28;20429;-79
2023/01/20 05:09:05;;;;;;;11.77;5.10;;;0.10;99.90;;;-1.00;100.00;101616.72;4137574;28;20031;-79
2023/01/20 05:11:06;;;;;;;10.98;5.45;;;0.10;99.90;;;-0.99;100.00;101623.59;4155033;28;20038;-79
2023/01/20 05:13:07;;;;;;;11.02;4.75;;;0.10;99.90;;;-1.06;100.00;101616.97;4155073;28;20116;-79
2023/01/20 05:15:08;;;;;;;10.82;5.13;;;0.10;99.90;;;-1.08;100.00;101612.75;4154237;28;20030;-79
2023/01/20 05:17:09;;;;;;;6.50;4.30;;;0.10;99.90;;;-1.11;100.00;101627.50;4145510;28;20116;-79
2023/01/20 05:19:11;;;;;;;6.38;4.70;;;0.10;99.90;;;-1.22;100.00;101616.72;4155947;28;20077;-79
2023/01/20 05:21:11;;;;;;;7.50;4.47;;;0.00;99.90;;;-1.35;100.00;101618.13;4153311;28;20502;-79
2023/01/20 05:23:28;;;;;;;8.10;3.95;;;0.00;99.90;;;-1.37;100.00;101638.00;4121945;28;20050;-79
2023/01/20 05:25:29;;;;;;;6.90;4.45;;;-0.10;99.90;;;-1.17;100.00;101635.53;4154525;28;20029;-79
2023/01/20 05:27:29;;;;;;;10.82;4.97;;;0.00;99.90;;;-0.94;100.00;101644.97;4161854;28;20025;-79
2023/01/20 05:29:30;;;;;;;6.35;4.40;;;0.20;99.90;;;-0.90;100.00;101643.09;4154849;28;20034;-79
2023/01/20 05:31:31;;;;;;;7.75;4.95;;;0.30;99.90;;;-0.96;100.00;101635.56;4154761;28;20025;-79
2023/01/20 05:33:32;;;;;;;8.38;5.07;;;0.30;99.90;;;-1.01;100.00;101648.69;4153476;28;20034;-79
2023/01/20 05:35:33;;;;;;;10.57;5.20;;;0.20;99.90;;;-1.11;100.00;101650.78;4153189;28;20033;-80
2023/01/20 05:37:34;;;;;;;14.63;5.32;;;0.10;99.90;;;-1.17;100.00;101648.47;4159311;28;20558;-79
2023/01/20 05:39:35;;;;;;;7.85;4.78;;;0.10;99.90;;;-1.21;100.00;101641.72;4154658;28;20026;-79
2023/01/20 05:41:36;;;;;;;8.27;5.03;;;0.00;99.90;;;-1.22;100.00;101649.53;4137066;28;20026;-79
2023/01/20 05:43:37;;;;;;;8.07;5.40;;;0.00;99.90;;;-1.28;100.00;101637.66;4154436;28;20029;-79
2023/01/20 05:45:38;;;;;;;9.60;5.28;;;0.00;99.90;;;-1.28;100.00;101636.81;4137129;28;20030;-79
2023/01/20 05:47:39;;;;;;;8.27;5.10;;;0.00;99.90;;;-1.24;100.00;101643.56;4158313;28;20022;-79
2023/01/20 05:49:40;;;;;;;7.53;5.13;;;0.00;99.90;;;-1.28;100.00;101642.84;4154522;28;20030;-79
2023/01/20 05:51:40;;;;;;;7.63;5.40;;;-0.10;99.90;;;-1.28;100.00;101658.38;4152840;28;20030;-79
2023/01/20 05:53:41;;;;;;;10.00;5.35;;;-0.10;99.90;;;-1.32;100.00;101643.88;4153165;28;20108;-79
2023/01/20 05:55:42;;;;;;;9.60;5.55;;;-0.10;99.90;;;-1.34;100.00;101656.00;4153370;28;20018;-79
2023/01/20 05:57:43;;;;;;;6.75;4.38;;;-0.10;99.90;;;-1.38;100.00;101651.03;4154678;28;20029;-79
2023/01/20 05:59:46;;;;;;;8.15;5.43;;;-0.20;99.90;;;-1.36;100.00;101657.81;4153129;28;20518;-79
2023/01/20 06:01:47;;;;;;;7.75;5.20;;;-0.10;99.90;;;-1.35;100.00;101662.13;4156764;28;20010;-79
2023/01/20 06:03:48;;;;;;;7.80;6.03;;;-0.20;99.90;;;-1.37;100.00;101669.06;4154557;28;20041;-78
2023/01/20 06:05:49;;;;;;;17.25;9.23;;;-0.20;99.90;;;-1.36;100.00;101664.75;4153924;28;20041;-79
2023/01/20 06:07:50;;;;;;;18.40;11.23;;;-0.20;99.90;;;-1.37;100.00;101663.88;4166335;28;20025;-78
2023/01/20 06:09:51;;;;;;;25.60;13.18;;;-0.20;99.90;;;-1.38;100.00;101664.81;4154253;28;20026;-79
2023/01/20 06:11:52;;;;;;;17.10;10.70;;;-0.20;99.90;;;-1.37;100.00;101661.31;4152976;28;20029;-80
2023/01/20 06:13:52;;;;;;;15.77;8.80;;;-0.20;99.90;;;-1.35;100.00;101663.84;4152917;28;20022;-79
2023/01/20 06:15:55;;;;;;;11.60;8.18;;;-0.20;99.90;;;-1.39;100.00;101665.72;4153836;28;20048;-79
2023/01/20 06:17:56;;;;;;;11.45;8.43;;;-0.20;99.90;;;-1.44;100.00;101662.47;4163462;28;20028;-79
2023/01/20 06:19:57;;;;;;;9.55;7.10;;;-0.20;99.90;;;-1.40;100.00;101679.53;4147861;28;20030;-78
2023/01/20 06:21:58;;;;;;;20.50;12.20;;;-0.20;99.90;;;-1.41;100.00;101680.47;4153742;28;20038;-79
2023/01/20 06:23:59;;;;;;;18.23;10.98;;;-0.20;99.90;;;-1.45;100.00;101684.03;4153394;28;20030;-79
2023/01/20 06:26:10;;;;;;;21.70;11.75;;;-0.20;99.90;;;-1.48;100.00;101678.13;4165217;28;20394;-79
2023/01/20 06:28:11;;;;;;;16.73;10.70;;;-0.20;99.90;;;-1.50;100.00;101688.56;4159689;28;20524;-79
2023/01/20 06:30:12;;;;;;;23.40;12.77;;;-0.30;99.90;;;-1.50;100.00;101691.16;4152604;28;20038;-79
2023/01/20 06:32:13;;;;;;;25.30;12.35;;;-0.30;99.90;;;-1.50;100.00;101695.47;4152511;28;20022;-79
2023/01/20 06:34:14;;;;;;;15.40;10.57;;;-0.30;99.90;;;-1.56;100.00;101688.78;4152402;28;20029;-79
2023/01/20 06:36:16;;;;;;;20.70;10.30;;;-0.30;99.90;;;-1.53;100.00;101693.84;4152492;28;20022;-80
2023/01/20 06:38:17;;;;;;;17.95;10.07;;;-0.30;99.90;;;-1.56;100.00;101698.28;4156956;28;20037;-80
2023/01/20 06:40:18;;;;;;;18.42;10.93;;;-0.30;99.90;;;-1.61;100.00;101688.09;4152231;28;20401;-80
2023/01/20 06:42:19;;;;;;;28.13;14.45;;;-0.40;99.90;;;-1.57;100.00;101707.78;4152567;28;20026;-79
2023/01/20 06:44:20;;;;;;;24.55;13.70;;;-0.40;99.90;;;-1.57;100.00;101707.78;4153719;28;20077;-80
2023/01/20 06:46:21;;;;;;;24.70;12.70;;;-0.40;99.90;;;-1.60;100.00;101692.38;4153764;28;20022;-80
2023/01/20 06:48:22;;;;;;;22.17;12.13;;;-0.40;99.90;;;-1.57;100.00;101702.59;4138077;28;20035;-79
2023/01/20 06:50:23;;;;;;;23.05;12.02;;;-0.40;99.90;;;-1.54;100.00;101710.25;4153834;28;20069;-80
2023/01/20 06:52:24;;;;;;;16.05;10.18;;;-0.40;99.90;;;-1.55;100.00;101705.97;4152014;28;20495;-80
2023/01/20 06:54:26;;;;;;;19.00;11.23;;;-0.40;99.90;;;-1.59;100.00;101699.25;4152283;28;20029;-80
2023/01/20 06:56:26;;;;;;;16.33;9.80;;;-0.40;99.90;;;-1.54;100.00;101720.59;4158814;28;20021;-80
2023/01/20 06:58:30;;;;;;;17.75;9.60;;;-0.30;99.90;;;-1.51;100.00;101717.91;4153395;28;20041;-80
2023/01/20 07:00:31;;;;;;;18.38;10.35;;;-0.30;99.90;;;-1.49;100.00;101723.84;4135928;28;20022;-80
2023/01/20 07:02:32;;;;;;;17.58;10.82;;;-0.30;99.90;;;-1.48;100.00;101719.53;4152123;28;20390;-80
2023/01/20 07:04:33;;;;;;;22.30;12.27;;;-0.30;99.90;;;-1.47;100.00;101724.66;4135822;28;20528;-80
2023/01/20 07:06:39;;;;;;;23.02;13.18;;;-0.30;99.90;;;-1.46;100.00;101733.25;4151926;28;20029;-80
2023/01/20 07:08:44;;;;;;;19.13;11.55;;;-0.20;99.90;;;-1.47;100.00;101729.84;4153246;28;20033;-80
2023/01/20 07:10:45;;;;;;;17.08;11.27;;;-0.30;99.90;;;-1.48;100.00;101727.28;4151933;28;20026;-80
2023/01/20 07:12:46;;;;;;;21.05;11.50;;;-0.20;99.90;;;-1.47;100.00;101729.00;4152769;28;20521;-80
2023/01/20 07:14:47;;;;;;;16.73;10.82;;;-0.30;99.90;;;-1.46;100.00;101735.84;4153180;28;20026;-80
2023/01/20 07:16:48;;;;;;;17.58;9.43;;;-0.20;99.90;;;-1.42;100.00;101743.44;4153574;28;20084;-80
2023/01/20 07:18:51;;;;;;;14.50;8.77;;;-0.20;99.90;;;-1.43;100.00;101739.16;4152975;28;20042;-80
2023/01/20 07:20:55;;;;;;;14.88;9.02;;;-0.20;99.90;;;-1.48;100.00;101740.22;4150699;28;20042;-80
2023/01/20 07:23:00;;;;;;;14.63;9.02;;;-0.30;99.90;;;-1.57;100.00;101733.66;4151910;28;20060;-80
2023/01/20 07:25:01;;;;;;;18.55;9.73;;;-0.30;99.90;;;-1.52;100.00;101749.84;4161274;28;20101;-80
2023/01/20 07:27:02;;;;;;;13.32;8.30;;;-0.30;99.90;;;-1.59;100.00;101743.22;4167464;28;20034;-80
2023/01/20 07:29:03;;;;;;;13.40;9.05;;;-0.30;99.90;;;-1.57;100.00;101746.59;4152275;28;20030;-80
2023/01/20 07:31:20;;;;;;;14.27;8.93;;;-0.30;99.90;;;-1.59;100.00;101745.81;4135493;28;20061;-80
2023/01/20 07:33:21;;;;;;;11.73;7.50;;;-0.30;99.90;;;-1.58;100.00;101742.28;4151742;28;20097;-80
2023/01/20 07:35:22;;;;;;;16.13;9.38;;;-0.40;99.90;;;-1.50;100.00;101753.25;4151560;28;20030;-80
2023/01/20 07:37:22;;;;;;;11.85;8.35;;;-0.30;99.90;;;-1.50;100.00;101750.66;4160289;28;20105;-81
2023/01/20 07:39:23;;;;;;;13.43;7.90;;;-0.30;99.90;;;-1.44;100.00;101760.78;4151690;28;20030;-80
2023/01/20 07:41:24;;;;;;;15.80;9.82;;;-0.30;99.90;;;-1.39;100.00;101760.59;4152808;28;20366;-81
2023/01/20 07:43:26;;;;;;;11.60;7.90;;;-0.30;99.90;;;-1.37;100.00;101764.81;4152636;28;20108;-81
2023/01/20 07:45:26;;;;;;;13.90;8.60;;;-0.20;99.90;;;-1.34;100.00;101764.69;4152854;28;20025;-81
2023/01/20 07:47:27;;;;;;;15.10;8.70;;;-0.20;99.90;;;-1.33;100.00;101761.22;4159542;28;20037;-80
2023/01/20 07:49:28;;;;;;;18.80;11.57;;;-0.20;99.90;;;-1.26;100.00;101770.47;4152734;28;20030;-80
2023/01/20 07:51:29;;;;;;;33.63;18.05;;;-0.10;99.90;;;-1.21;100.00;101768.53;4134852;28;20058;-81
2023/01/20 07:53:38;;;;;;;38.22;19.77;;;-0.10;99.90;;;-1.24;100.00;101766.06;4152217;28;20068;-81
2023/01/20 07:55:39;;;;;;;32.60;17.80;;;0.00;99.90;;;-1.17;100.00;101774.47;4151597;28;20029;-80
2023/01/20 07:57:39;;;;;;;32.00;16.33;;;0.00;99.90;;;-1.15;100.00;101777.81;4151290;28;20493;-80
2023/01/20 07:59:40;;;;;;;24.02;15.30;;;0.00;99.90;;;-1.12;100.00;101781.16;4154842;28;20058;-80
2023/01/20 08:01:43;;;;;;;26.42;14.63;;;0.00;99.90;;;-1.10;100.00;101778.50;4152579;28;20025;-80
2023/01/20 08:03:44;;;;;;;29.70;15.20;;;0.00;99.90;;;-1.10;100.00;101783.66;4151349;28;20026;-80
2023/01/20 08:05:46;;;;;;;29.42;15.70;;;0.10;99.90;;;-1.06;100.00;101787.00;4151412;28;20033;-80
2023/01/20 08:07:51;;;;;;;24.95;14.93;;;0.10;99.90;;;-1.06;100.00;101779.22;4152481;28;20033;-81
2023/01/20 08:09:52;;;;;;;28.88;15.23;;;0.10;99.90;;;-1.06;100.00;101785.25;4151352;28;20026;-80
2023/01/20 08:11:53;;;;;;;22.00;12.85;;;0.10;99.90;;;-0.98;100.00;101800.50;4154601;28;20029;-80
2023/01/20 08:13:54;;;;;;;14.80;9.95;;;0.20;99.90;;;-1.01;100.00;101798.00;4157186;28;20026;-80
2023/01/20 08:15:58;;;;;;;13.27;8.40;;;0.20;99.90;;;-1.03;100.00;101798.09;4152068;28;20049;-80
2023/01/20 08:17:59;;;;;;;17.17;9.60;;;0.20;99.90;;;-1.01;100.00;101798.00;4151328;28;20030;-78
2023/01/20 08:20:00;;;;;;;13.98;8.73;;;0.20;99.90;;;-0.98;100.00;101800.50;4150946;28;20033;-80
2023/01/20 08:22:01;;;;;;;17.13;9.65;;;0.20;99.90;;;-0.93;100.00;101803.78;4152153;28;20022;-81
2023/01/20 08:24:05;;;;;;;14.80;9.52;;;0.30;99.90;;;-0.87;100.00;101803.56;4151735;28;20029;-80
2023/01/20 08:26:06;;;;;;;17.73;11.35;;;0.30;99.90;;;-0.83;100.00;101802.50;4165005;28;20026;-81
2023/01/20 08:28:07;;;;;;;36.00;22.77;;;0.30;99.90;;;-0.77;100.00;101802.28;4159965;28;20033;-81
2023/01/20 08:30:09;;;;;;;59.85;37.38;;;0.40;99.90;;;-0.73;100.00;101802.13;4150931;28;20034;-81
2023/01/20 08:32:10;;;;;;;58.42;37.53;;;0.40;99.90;;;-0.63;100.00;101820.75;4150955;28;20579;-81
2023/01/20 08:34:11;;;;;;;56.22;35.60;;;0.50;99.90;;;-0.57;100.00;101823.13;4152254;28;20062;-81